Time;durP1;ratioP1;P1;durP2;ratioP2;P2;SDS_P1;SDS_P2;PMS_P1;PMS_P2;Temp;Humidity;BMP_temperature;BMP_pressure;BME280_temperature;BME280_humidity;BME280_pressure;Samples;Min_cycle;Max_cycle;Signal;HPM_P1;HPM_P2
2022/06/12 00:02:23;;;;;;;13.82;3.17;;;14.50;99.90;;;;;;5012663;28;20558;-63
2022/06/12 00:04:50;;;;;;;11.98;3.47;;;14.60;99.90;;;;;;5002404;28;20205;-62
2022/06/12 00:07:18;;;;;;;7.00;2.63;;;14.60;99.90;;;;;;4980196;28;20214;-63
2022/06/12 00:09:45;;;;;;;9.20;3.00;;;14.50;99.90;;;;;;4987486;28;20647;-63
2022/06/12 00:12:12;;;;;;;8.05;3.30;;;14.50;99.90;;;;;;5005721;28;20217;-63
2022/06/12 00:14:39;;;;;;;11.18;3.20;;;14.50;99.90;;;;;;4995547;28;20213;-63
2022/06/12 00:17:05;;;;;;;8.43;2.60;;;14.40;99.90;;;;;;4996060;28;20209;-63
2022/06/12 00:19:32;;;;;;;8.60;2.72;;;14.30;99.90;;;;;;5006499;28;20225;-63
2022/06/12 00:21:59;;;;;;;7.22;2.58;;;14.20;99.90;;;;;;5005218;28;20194;-63
2022/06/12 00:24:28;;;;;;;9.45;3.30;;;14.50;99.90;;;;;;4976559;28;20209;-63
2022/06/12 00:26:57;;;;;;;9.50;3.58;;;14.20;99.90;;;;;;4991995;28;20735;-63
2022/06/12 00:29:26;;;;;;;12.85;3.00;;;14.20;99.90;;;;;;4993700;28;20793;-62
2022/06/12 00:31:57;;;;;;;14.80;2.88;;;14.20;99.90;;;;;;5000165;28;20198;-62
2022/06/12 00:34:29;;;;;;;13.80;3.75;;;14.20;99.90;;;;;;5007372;28;20727;-62
2022/06/12 00:36:57;;;;;;;9.15;2.75;;;14.20;99.90;;;;;;5009912;28;20584;-62
2022/06/12 00:39:25;;;;;;;10.48;3.45;;;14.00;99.90;;;;;;4976691;28;20237;-64
2022/06/12 00:41:55;;;;;;;8.90;2.90;;;13.90;99.90;;;;;;4995467;28;20209;-62
2022/06/12 00:44:27;;;;;;;11.95;3.20;;;13.80;99.90;;;;;;4997111;28;20206;-62
2022/06/12 00:46:57;;;;;;;16.08;3.58;;;13.90;99.90;;;;;;5007447;28;20198;-63
2022/06/12 00:49:27;;;;;;;7.55;2.58;;;13.80;99.90;;;;;;4991442;28;20198;-63
2022/06/12 00:52:00;;;;;;;8.80;3.10;;;13.80;99.90;;;;;;5009577;28;20220;-62
2022/06/12 00:54:28;;;;;;;9.25;2.58;;;13.70;99.90;;;;;;4985891;28;20201;-63
2022/06/12 00:56:59;;;;;;;8.10;2.83;;;13.70;99.90;;;;;;4996773;28;20206;-63
2022/06/12 00:59:35;;;;;;;7.15;2.97;;;13.70;99.90;;;;;;4994477;28;20221;-63
2022/06/12 01:02:03;;;;;;;8.65;2.95;;;13.80;99.90;;;;;;5007938;28;20256;-63
2022/06/12 01:07:20;;;;;;;7.60;2.67;;;13.60;99.90;;;;;;5011451;28;20646;-62
2022/06/12 01:09:49;;;;;;;7.35;3.05;;;13.60;99.90;;;;;;5009852;28;20202;-62
2022/06/12 01:12:21;;;;;;;13.25;3.25;;;13.40;99.90;;;;;;4983562;28;20209;-62
2022/06/12 01:14:52;;;;;;;10.40;3.50;;;13.60;99.90;;;;;;4994510;28;20241;-63
2022/06/12 01:17:21;;;;;;;8.70;3.15;;;13.60;99.90;;;;;;5003529;28;20228;-62
2022/06/12 01:19:51;;;;;;;14.70;3.30;;;13.50;99.90;;;;;;4993777;28;20703;-63
2022/06/12 01:22:39;;;;;;;15.60;3.42;;;13.40;99.90;;;;;;5004995;28;20213;-63
2022/06/12 01:25:56;;;;;;;12.35;2.95;;;13.40;99.90;;;;;;5005657;28;20753;-62
2022/06/12 01:28:42;;;;;;;14.07;3.60;;;13.40;99.90;;;;;;4986576;28;20287;-63
2022/06/12 01:31:21;;;;;;;9.00;3.08;;;13.60;99.90;;;;;;4996436;28;20218;-62
2022/06/12 01:33:58;;;;;;;7.45;2.88;;;13.00;99.90;;;;;;4993160;28;20210;-62
2022/06/12 01:36:31;;;;;;;7.88;3.15;;;13.40;99.90;;;;;;5001952;28;20580;-62
2022/06/12 01:39:10;;;;;;;6.05;2.83;;;13.40;99.90;;;;;;5008488;28;20218;-62
2022/06/12 01:41:48;;;;;;;7.28;2.63;;;13.50;99.90;;;;;;4983443;28;20206;-63
2022/06/12 01:44:21;;;;;;;10.98;2.92;;;13.50;99.90;;;;;;4996853;28;20201;-62
2022/06/12 01:46:55;;;;;;;9.85;2.95;;;13.60;99.90;;;;;;4996878;28;21069;-66
2022/06/12 01:49:28;;;;;;;8.68;2.97;;;13.60;99.90;;;;;;4999669;28;20206;-63
2022/06/12 01:52:01;;;;;;;9.43;3.17;;;13.60;99.90;;;;;;5010414;28;20213;-62
2022/06/12 01:54:34;;;;;;;10.93;3.10;;;13.70;99.90;;;;;;5003501;28;20195;-63
2022/06/12 01:57:05;;;;;;;8.95;3.00;;;13.60;99.90;;;;;;5007549;28;20206;-62
2022/06/12 01:59:40;;;;;;;8.18;2.97;;;13.60;99.90;;;;;;4972424;28;20221;-62
2022/06/12 02:02:18;;;;;;;6.97;2.60;;;13.60;99.90;;;;;;5007295;28;20705;-62
2022/06/12 02:04:56;;;;;;;10.00;3.00;;;13.50;99.90;;;;;;4999295;28;20204;-62
2022/06/12 02:07:28;;;;;;;9.73;3.42;;;13.50;99.90;;;;;;4994705;28;20206;-63
2022/06/12 02:10:03;;;;;;;8.73;3.25;;;13.50;99.90;;;;;;5009142;28;20202;-63
2022/06/12 02:15:26;;;;;;;9.13;2.90;;;13.40;99.90;;;;;;4983412;28;20220;-63
2022/06/12 02:18:03;;;;;;;15.52;2.97;;;13.50;99.90;;;;;;4998423;28;20208;-63
2022/06/12 02:20:34;;;;;;;11.07;3.45;;;13.50;99.90;;;;;;4987754;28;20233;-62
2022/06/12 02:23:03;;;;;;;10.25;2.85;;;13.50;99.90;;;;;;4997395;28;20206;-64
2022/06/12 02:25:34;;;;;;;6.43;2.80;;;13.50;99.90;;;;;;4991559;28;20206;-63
2022/06/12 02:28:07;;;;;;;7.43;3.10;;;13.40;99.90;;;;;;5007236;28;20198;-65
2022/06/12 02:30:38;;;;;;;8.93;2.92;;;13.50;99.90;;;;;;4985558;28;20206;-63
2022/06/12 02:33:12;;;;;;;10.73;3.05;;;13.40;99.90;;;;;;5004103;28;20206;-62
2022/06/12 02:35:44;;;;;;;9.00;2.80;;;13.40;99.90;;;;;;4985022;28;20208;-64
2022/06/12 02:38:15;;;;;;;12.50;3.40;;;13.40;99.90;;;;;;4996839;28;21492;-62
2022/06/12 02:40:45;;;;;;;13.18;3.45;;;13.40;99.90;;;;;;4997652;28;20256;-62
2022/06/12 02:43:15;;;;;;;6.57;2.70;;;13.50;99.90;;;;;;4997608;28;20213;-63
2022/06/12 02:45:48;;;;;;;8.32;3.15;;;13.50;99.90;;;;;;4986357;28;20797;-62
2022/06/12 02:48:15;;;;;;;10.68;3.15;;;13.40;99.90;;;;;;5008902;28;20206;-62
2022/06/12 02:50:55;;;;;;;7.13;3.03;;;13.40;99.90;;;;;;4995910;28;20217;-62
2022/06/12 02:53:28;;;;;;;7.05;3.08;;;13.50;99.90;;;;;;4994763;28;20230;-62
2022/06/12 02:56:01;;;;;;;9.95;3.00;;;13.40;99.90;;;;;;4998566;28;20236;-63
2022/06/12 02:58:33;;;;;;;12.40;3.33;;;13.40;99.90;;;;;;4999820;28;21048;-62
2022/06/12 03:01:08;;;;;;;12.95;3.53;;;13.40;99.90;;;;;;4990441;28;20209;-63
2022/06/12 03:03:41;;;;;;;13.05;3.95;;;13.40;99.90;;;;;;4991092;28;20216;-62
2022/06/12 03:06:09;;;;;;;10.90;3.55;;;13.30;99.90;;;;;;5011051;28;20204;-63
2022/06/12 03:08:38;;;;;;;7.57;3.92;;;13.40;99.90;;;;;;4992688;28;21185;-62
2022/06/12 03:11:10;;;;;;;13.43;3.35;;;13.40;99.90;;;;;;4996973;28;20206;-63
2022/06/12 03:13:38;;;;;;;12.05;3.40;;;13.30;99.90;;;;;;4994424;28;20203;-62
2022/06/12 03:16:15;;;;;;;13.98;3.35;;;13.30;99.90;;;;;;4984855;28;20226;-63
2022/06/12 03:18:46;;;;;;;8.57;3.33;;;13.30;99.90;;;;;;5005396;28;20206;-63
2022/06/12 03:21:22;;;;;;;16.67;3.55;;;13.70;99.90;;;;;;5010008;28;20569;-62
2022/06/12 03:24:05;;;;;;;8.35;3.03;;;13.10;99.90;;;;;;4990417;28;20226;-63
2022/06/12 03:26:52;;;;;;;17.50;3.65;;;13.20;99.90;;;;;;5010167;28;20198;-63
2022/06/12 03:29:27;;;;;;;8.52;3.50;;;13.30;99.90;;;;;;4996195;28;20218;-63
2022/06/12 03:32:05;;;;;;;6.35;2.90;;;13.30;99.90;;;;;;4984777;28;20198;-63
2022/06/12 03:34:39;;;;;;;8.30;3.08;;;13.40;99.90;;;;;;4995979;28;20680;-62
2022/06/12 03:37:11;;;;;;;10.55;3.38;;;13.30;99.90;;;;;;5001857;28;20198;-63
2022/06/12 03:39:43;;;;;;;7.97;2.78;;;13.40;99.90;;;;;;4990836;28;20222;-63
2022/06/12 03:42:19;;;;;;;8.75;3.38;;;13.40;99.90;;;;;;5008534;28;20205;-62
2022/06/12 03:44:53;;;;;;;6.45;2.80;;;13.30;99.90;;;;;;4996234;28;20218;-62
2022/06/12 03:47:29;;;;;;;12.90;3.28;;;13.30;99.90;;;;;;4986463;28;20241;-62
2022/06/12 03:50:02;;;;;;;8.35;3.17;;;13.40;99.90;;;;;;5001051;28;20579;-63
2022/06/12 03:52:33;;;;;;;10.20;3.28;;;13.40;99.90;;;;;;5004697;28;20226;-62
2022/06/12 03:55:06;;;;;;;8.35;3.15;;;13.40;99.90;;;;;;4992952;28;20202;-62
2022/06/12 03:57:51;;;;;;;9.18;3.30;;;13.40;99.90;;;;;;5007013;28;20589;-63
2022/06/12 04:00:23;;;;;;;10.85;3.58;;;13.50;99.90;;;;;;5002007;28;21133;-62
2022/06/12 04:02:56;;;;;;;11.20;3.42;;;13.70;99.90;;;;;;4986361;28;20438;-62
2022/06/12 04:05:27;;;;;;;10.68;3.50;;;13.50;99.90;;;;;;5007244;28;20200;-63
2022/06/12 04:07:58;;;;;;;8.82;2.83;;;13.60;99.90;;;;;;4998204;28;20556;-62
2022/06/12 04:10:29;;;;;;;9.43;2.97;;;13.60;99.90;;;;;;4991310;28;20206;-63
2022/06/12 04:12:56;;;;;;;9.57;3.53;;;13.60;99.90;;;;;;5006790;28;20562;-63
2022/06/12 04:15:27;;;;;;;14.85;3.10;;;13.70;99.90;;;;;;4995498;28;20205;-63
2022/06/12 04:17:56;;;;;;;15.45;3.45;;;13.70;99.90;;;;;;4991191;28;20396;-63
2022/06/12 04:20:28;;;;;;;8.18;3.15;;;13.70;99.90;;;;;;5005260;28;20233;-62
2022/06/12 04:23:00;;;;;;;12.95;3.25;;;13.70;99.90;;;;;;4994650;28;20202;-63
2022/06/12 04:25:34;;;;;;;13.93;4.28;;;13.80;99.90;;;;;;4992454;28;20763;-63
2022/06/12 04:28:02;;;;;;;8.43;3.40;;;13.90;99.90;;;;;;5005373;28;20214;-62
2022/06/12 04:30:31;;;;;;;9.80;3.33;;;13.90;99.90;;;;;;4994067;28;20221;-63
2022/06/12 04:33:19;;;;;;;11.10;3.42;;;14.00;99.90;;;;;;4985136;28;20205;-62
2022/06/12 04:35:51;;;;;;;13.10;3.22;;;14.10;99.90;;;;;;4998178;28;20778;-63
2022/06/12 04:38:18;;;;;;;10.93;3.25;;;14.20;99.90;;;;;;4994861;28;20206;-63
2022/06/12 04:40:45;;;;;;;10.70;3.38;;;14.20;99.90;;;;;;4992976;28;20226;-63
2022/06/12 04:43:12;;;;;;;11.00;3.55;;;14.30;99.90;;;;;;5007859;28;20203;-62
2022/06/12 04:45:41;;;;;;;12.13;3.15;;;14.30;99.90;;;;;;5004006;28;20205;-63
2022/06/12 04:48:14;;;;;;;11.40;3.45;;;14.40;99.90;;;;;;4988336;28;20218;-65
2022/06/12 04:50:41;;;;;;;6.97;3.20;;;14.40;99.90;;;;;;4985598;28;20213;-63
2022/06/12 04:53:07;;;;;;;11.80;3.55;;;14.50;99.90;;;;;;4997036;28;20711;-63
2022/06/12 04:55:34;;;;;;;16.73;3.97;;;14.50;99.90;;;;;;4992443;28;20996;-63
2022/06/12 04:58:01;;;;;;;6.30;3.35;;;14.50;99.90;;;;;;5007387;28;20206;-63
2022/06/12 05:00:29;;;;;;;9.32;2.85;;;14.60;99.90;;;;;;5002533;28;20233;-63
2022/06/12 05:02:56;;;;;;;7.60;3.50;;;14.60;99.90;;;;;;4988324;28;20206;-62
2022/06/12 05:05:25;;;;;;;9.07;3.13;;;14.70;99.90;;;;;;4999598;28;20209;-63
2022/06/12 05:07:52;;;;;;;8.70;3.80;;;14.80;99.90;;;;;;5005730;28;20292;-63
2022/06/12 05:10:19;;;;;;;13.63;3.47;;;14.90;99.90;;;;;;4993449;28;20234;-62
2022/06/12 05:12:46;;;;;;;11.20;3.33;;;15.00;99.90;;;;;;4998310;28;20782;-63
2022/06/12 05:15:13;;;;;;;8.82;3.15;;;15.00;99.90;;;;;;5009346;28;20203;-63
2022/06/12 05:17:41;;;;;;;7.13;3.88;;;15.10;99.90;;;;;;5002780;28;20224;-62
2022/06/12 05:20:14;;;;;;;13.40;4.00;;;15.20;99.90;;;;;;4989574;28;20222;-62
2022/06/12 05:22:42;;;;;;;12.18;3.25;;;15.20;99.90;;;;;;4999676;28;20225;-62
2022/06/12 05:25:10;;;;;;;11.63;4.30;;;15.30;99.90;;;;;;4999806;28;20209;-63
2022/06/12 05:27:37;;;;;;;10.65;3.75;;;15.30;99.90;;;;;;4979965;28;20206;-63
2022/06/12 05:30:05;;;;;;;12.23;4.10;;;15.40;99.90;;;;;;5010832;28;21083;-62
2022/06/12 05:32:32;;;;;;;13.40;4.95;;;15.30;99.90;;;;;;5004816;28;20209;-62
2022/06/12 05:34:59;;;;;;;10.50;4.97;;;15.50;99.90;;;;;;4988677;28;20212;-64
2022/06/12 05:37:26;;;;;;;13.48;4.93;;;15.50;99.90;;;;;;5007348;28;20576;-63
2022/06/12 05:39:54;;;;;;;11.57;4.68;;;15.50;99.90;;;;;;5000158;28;20226;-63
2022/06/12 05:42:21;;;;;;;10.25;3.88;;;15.60;99.90;;;;;;4979135;28;20222;-63
2022/06/12 05:44:48;;;;;;;11.05;3.80;;;15.60;99.90;;;;;;4997707;28;20222;-62
2022/06/12 05:47:15;;;;;;;15.32;4.15;;;15.70;99.90;;;;;;4993185;28;20316;-63
2022/06/12 05:49:42;;;;;;;9.63;3.92;;;15.50;99.90;;;;;;4982713;28;20221;-63
2022/06/12 05:52:14;;;;;;;7.90;3.35;;;15.70;99.90;;;;;;4995290;28;20233;-63
2022/06/12 05:54:42;;;;;;;6.80;3.15;;;15.80;99.90;;;;;;5007041;28;20772;-63
2022/06/12 05:57:10;;;;;;;9.30;3.30;;;15.80;99.90;;;;;;4984757;28;20252;-63
2022/06/12 05:59:37;;;;;;;13.75;3.40;;;16.00;99.90;;;;;;4999463;28;20221;-63
2022/06/12 06:02:04;;;;;;;8.95;3.08;;;16.00;99.90;;;;;;4981636;28;20206;-63
2022/06/12 06:04:31;;;;;;;9.25;2.95;;;16.10;99.90;;;;;;4991968;28;20210;-63
2022/06/12 06:06:58;;;;;;;9.43;3.20;;;16.10;99.90;;;;;;4967914;28;20215;-63
2022/06/12 06:09:25;;;;;;;9.35;2.92;;;16.20;99.90;;;;;;5001832;28;20229;-63
2022/06/12 06:11:53;;;;;;;11.57;3.60;;;16.20;99.90;;;;;;4993804;28;20948;-62
2022/06/12 06:14:21;;;;;;;10.90;3.40;;;16.30;99.90;;;;;;4991591;28;20202;-63
2022/06/12 06:16:48;;;;;;;8.98;2.80;;;16.30;99.90;;;;;;4996745;28;21151;-62
2022/06/12 06:19:16;;;;;;;10.98;2.63;;;16.40;99.90;;;;;;4993131;28;20227;-63
2022/06/12 06:21:42;;;;;;;9.10;3.25;;;16.40;99.90;;;;;;4982918;28;20236;-63
2022/06/12 06:24:11;;;;;;;5.43;2.40;;;16.50;99.90;;;;;;4988840;28;20202;-63
2022/06/12 06:26:38;;;;;;;11.55;2.80;;;16.50;99.90;;;;;;4990407;28;20304;-63
2022/06/12 06:29:05;;;;;;;8.50;3.13;;;16.50;99.90;;;;;;4994107;28;20202;-62
2022/06/12 06:31:35;;;;;;;10.23;3.20;;;17.10;99.90;;;;;;4992235;28;20711;-63
2022/06/12 06:34:02;;;;;;;6.75;3.03;;;16.70;99.90;;;;;;4988408;28;20222;-63
2022/06/12 06:36:29;;;;;;;8.35;2.25;;;16.80;99.90;;;;;;4968847;28;20710;-63
2022/06/12 06:38:58;;;;;;;12.05;2.60;;;16.80;99.90;;;;;;4979504;28;20225;-63
2022/06/12 06:41:26;;;;;;;12.75;3.15;;;16.90;99.90;;;;;;4995881;28;20333;-63
2022/06/12 06:46:41;;;;;;;15.15;3.38;;;17.10;99.90;;;;;;4987979;28;20208;-63
2022/06/12 06:49:08;;;;;;;15.40;3.83;;;17.00;99.90;;;;;;4983990;28;20230;-64
2022/06/12 06:51:36;;;;;;;10.52;3.10;;;17.10;99.90;;;;;;5009900;22;20189;-64
2022/06/12 06:54:04;;;;;;;8.45;3.15;;;17.00;99.90;;;;;;4949066;28;20226;-63
2022/06/12 06:56:30;;;;;;;11.93;3.15;;;17.10;99.90;;;;;;4989039;28;20226;-64
2022/06/12 06:58:57;;;;;;;12.32;3.65;;;17.20;99.90;;;;;;4962218;28;20305;-64
2022/06/12 07:01:24;;;;;;;12.55;3.13;;;17.20;99.90;;;;;;4994440;28;20242;-63
2022/06/12 07:03:53;;;;;;;14.05;2.85;;;17.20;99.90;;;;;;4978102;28;20234;-63
2022/06/12 07:06:20;;;;;;;7.80;2.67;;;17.30;99.90;;;;;;4998624;28;20201;-64
2022/06/12 07:08:47;;;;;;;11.35;2.65;;;17.40;99.90;;;;;;4952296;28;20236;-63
2022/06/12 07:11:14;;;;;;;10.20;2.47;;;17.40;99.90;;;;;;4969668;28;20377;-65
2022/06/12 07:13:43;;;;;;;10.98;2.30;;;17.50;99.90;;;;;;4963294;28;20198;-64
2022/06/12 07:16:10;;;;;;;14.65;3.65;;;17.50;99.90;;;;;;5007644;28;20218;-63
2022/06/12 07:18:37;;;;;;;10.65;2.47;;;17.50;99.90;;;;;;4985102;28;23077;-64
2022/06/12 07:21:06;;;;;;;12.82;3.03;;;17.40;99.90;;;;;;5010144;28;20222;-64
2022/06/12 07:23:34;;;;;;;10.15;3.55;;;18.80;99.90;;;;;;4982595;28;20210;-64
2022/06/12 07:26:04;;;;;;;5.85;2.60;;;17.30;99.90;;;;;;4995099;28;21032;-64
2022/06/12 07:28:33;;;;;;;13.95;3.03;;;17.60;99.90;;;;;;4982741;28;20209;-64
2022/06/12 07:31:00;;;;;;;10.32;2.90;;;17.60;99.90;;;;;;4992232;28;20212;-65
2022/06/12 07:33:27;;;;;;;8.57;2.85;;;17.70;99.90;;;;;;5002040;28;20213;-64
2022/06/12 07:35:54;;;;;;;7.65;2.72;;;17.60;99.90;;;;;;4982307;28;20228;-64
2022/06/12 07:38:28;;;;;;;10.80;2.90;;;17.80;99.90;;;;;;4993139;28;20222;-64
2022/06/12 07:40:58;;;;;;;11.30;3.08;;;17.70;99.90;;;;;;5004383;28;20943;-64
2022/06/12 07:43:26;;;;;;;7.88;2.33;;;16.90;99.90;;;;;;4978678;28;20210;-62
2022/06/12 07:45:53;;;;;;;12.93;2.55;;;17.30;99.90;;;;;;4987980;28;20230;-62
2022/06/12 07:48:21;;;;;;;8.82;2.50;;;17.80;99.90;;;;;;4995660;28;20223;-62
2022/06/12 07:50:49;;;;;;;4.95;1.70;;;17.90;99.90;;;;;;4989105;28;20224;-63
2022/06/12 07:53:21;;;;;;;8.15;2.10;;;17.90;99.90;;;;;;4986550;28;20230;-63
2022/06/12 07:55:50;;;;;;;7.00;1.88;;;17.90;99.90;;;;;;4993556;28;20340;-63
2022/06/12 07:58:18;;;;;;;7.00;1.90;;;17.90;99.90;;;;;;4985538;28;20736;-63
2022/06/12 08:00:45;;;;;;;7.38;2.10;;;17.90;99.90;;;;;;4977860;28;20317;-63
2022/06/12 08:03:12;;;;;;;10.40;1.73;;;18.00;99.90;;;;;;4997782;28;20210;-64
2022/06/12 08:05:39;;;;;;;12.40;2.47;;;18.00;99.90;;;;;;4999211;28;20217;-63
2022/06/12 08:08:06;;;;;;;5.90;2.10;;;18.00;99.90;;;;;;4989238;28;21043;-63
2022/06/12 08:10:33;;;;;;;5.68;1.90;;;18.00;99.90;;;;;;4975585;28;20217;-63
2022/06/12 08:13:06;;;;;;;7.18;2.03;;;18.00;99.90;;;;;;4974820;28;20229;-63
2022/06/12 08:15:35;;;;;;;7.55;1.67;;;15.30;99.90;;;;;;4977479;28;20212;-64
2022/06/12 08:18:04;;;;;;;5.57;2.03;;;18.10;99.90;;;;;;4996426;28;20328;-64
2022/06/12 08:20:34;;;;;;;10.63;2.33;;;18.10;99.90;;;;;;4998186;28;20206;-63
2022/06/12 08:23:04;;;;;;;7.05;2.40;;;18.20;99.90;;;;;;4992493;28;20202;-64
2022/06/12 08:25:35;;;;;;;7.00;2.08;;;18.30;99.90;;;;;;4983230;28;20701;-64
2022/06/12 08:28:04;;;;;;;8.40;2.22;;;18.20;99.90;;;;;;5004831;28;20226;-64
2022/06/12 08:30:32;;;;;;;9.77;2.28;;;18.40;99.90;;;;;;4974345;28;21694;-64
2022/06/12 08:32:59;;;;;;;3.45;1.40;;;18.50;99.90;;;;;;4990884;28;20233;-64
2022/06/12 08:35:29;;;;;;;10.45;2.03;;;18.50;99.90;;;;;;4990238;28;20226;-63
2022/06/12 08:37:56;;;;;;;7.88;2.03;;;18.70;99.90;;;;;;4983002;28;20539;-63
2022/06/12 08:40:40;;;;;;;7.80;2.20;;;18.70;99.90;;;;;;4982375;28;20226;-63
2022/06/12 08:43:17;;;;;;;6.75;1.70;;;18.70;99.90;;;;;;5005939;28;20307;-64
2022/06/12 08:45:47;;;;;;;9.70;2.63;;;18.80;99.90;;;;;;4979184;28;20331;-64
2022/06/12 08:48:22;;;;;;;6.95;2.30;;;18.80;99.90;;;;;;4988787;28;20221;-64
2022/06/12 08:50:56;;;;;;;7.75;2.33;;;18.80;99.90;;;;;;5002519;28;20229;-61
2022/06/12 08:53:30;;;;;;;6.47;2.13;;;18.80;99.90;;;;;;4989074;28;20900;-64
2022/06/12 08:56:04;;;;;;;10.93;2.13;;;18.90;99.90;;;;;;4984860;28;20229;-64
2022/06/12 08:58:41;;;;;;;9.80;2.28;;;19.00;99.90;;;;;;4991747;28;20323;-64
2022/06/12 09:01:09;;;;;;;7.20;1.92;;;19.10;99.90;;;;;;4984699;28;20574;-64
2022/06/12 09:03:39;;;;;;;9.55;1.85;;;19.10;99.90;;;;;;4987861;28;20229;-63
2022/06/12 09:06:15;;;;;;;9.32;2.22;;;19.10;99.90;;;;;;5002928;28;20222;-64
2022/06/12 09:08:48;;;;;;;7.40;1.73;;;19.20;99.90;;;;;;4992473;28;20222;-64
2022/06/12 09:11:20;;;;;;;10.20;2.38;;;19.30;99.90;;;;;;4983879;28;20222;-64
2022/06/12 09:14:02;;;;;;;6.85;2.60;;;19.20;99.90;;;;;;4992908;28;20226;-64
2022/06/12 09:16:37;;;;;;;7.13;2.10;;;19.30;99.90;;;;;;4993224;28;20710;-64
2022/06/12 09:19:11;;;;;;;12.70;2.13;;;19.30;99.90;;;;;;4992153;28;20208;-64
2022/06/12 09:21:49;;;;;;;12.10;2.35;;;19.30;99.90;;;;;;5000838;28;20241;-64
2022/06/12 09:24:27;;;;;;;12.57;2.28;;;19.30;99.90;;;;;;4995116;28;20209;-64
2022/06/12 09:27:03;;;;;;;5.93;1.75;;;19.30;99.90;;;;;;4982610;28;20208;-63
2022/06/12 09:29:43;;;;;;;4.55;1.92;;;19.40;99.90;;;;;;4998500;28;20231;-64
2022/06/12 09:32:17;;;;;;;4.50;1.70;;;19.40;99.90;;;;;;4991842;28;20226;-64
2022/06/12 09:34:55;;;;;;;8.43;2.42;;;19.50;99.90;;;;;;4988154;28;20233;-64
2022/06/12 09:40:27;;;;;;;9.48;2.33;;;19.70;99.90;;;;;;4993011;28;20221;-64
2022/06/12 09:43:00;;;;;;;12.73;2.80;;;19.70;99.90;;;;;;4983726;28;20227;-64
2022/06/12 09:45:35;;;;;;;4.63;1.67;;;20.20;99.90;;;;;;5008406;28;20200;-64
2022/06/12 09:48:14;;;;;;;9.57;2.30;;;19.70;99.90;;;;;;4985422;28;22984;-64
2022/06/12 09:50:51;;;;;;;7.70;2.08;;;20.00;99.90;;;;;;4987862;28;20222;-63
2022/06/12 09:53:33;;;;;;;6.13;1.83;;;20.00;99.90;;;;;;4995936;28;20228;-64
2022/06/12 09:56:04;;;;;;;7.40;2.10;;;20.10;99.90;;;;;;4983933;28;20206;-64
2022/06/12 09:58:37;;;;;;;9.13;2.17;;;20.50;99.90;;;;;;4987607;28;20652;-64
2022/06/12 10:01:10;;;;;;;11.27;2.50;;;20.60;99.90;;;;;;5000197;28;20237;-64
2022/06/12 10:03:41;;;;;;;7.53;2.45;;;20.60;99.90;;;;;;4990686;28;20594;-64
2022/06/12 10:06:17;;;;;;;9.27;2.05;;;20.60;99.90;;;;;;4989611;28;20207;-64
2022/06/12 10:08:50;;;;;;;9.25;1.98;;;20.60;99.90;;;;;;4993125;28;20198;-64
2022/06/12 10:11:21;;;;;;;6.80;1.55;;;20.60;99.90;;;;;;4990769;28;20389;-64
2022/06/12 10:13:53;;;;;;;11.15;2.42;;;20.60;99.90;;;;;;4986629;28;20222;-63
2022/06/12 10:16:25;;;;;;;8.52;2.20;;;20.60;99.90;;;;;;4999556;28;20199;-64
2022/06/12 10:18:59;;;;;;;12.13;2.47;;;20.60;99.90;;;;;;4997314;28;20206;-63
2022/06/12 10:21:27;;;;;;;8.20;2.88;;;20.60;99.90;;;;;;4995516;28;20275;-64
2022/06/12 10:23:54;;;;;;;7.80;2.28;;;20.60;99.90;;;;;;4999567;28;20211;-63
2022/06/12 10:26:23;;;;;;;7.63;2.20;;;20.60;99.90;;;;;;5001790;28;20213;-63
2022/06/12 10:29:02;;;;;;;7.65;2.25;;;20.60;99.90;;;;;;4986949;28;20222;-63
2022/06/12 10:31:34;;;;;;;9.00;2.30;;;20.60;99.90;;;;;;5000003;28;20703;-63
2022/06/12 10:34:14;;;;;;;12.32;2.15;;;20.60;99.90;;;;;;4987204;28;20654;-64
2022/06/12 10:36:41;;;;;;;6.50;2.17;;;20.80;99.90;;;;;;4992040;28;20229;-64
2022/06/12 10:39:15;;;;;;;10.52;2.42;;;20.80;99.90;;;;;;4995551;28;20651;-63
2022/06/12 10:41:48;;;;;;;8.77;2.00;;;20.70;99.90;;;;;;5007367;28;21526;-63
2022/06/12 10:44:30;;;;;;;8.30;2.00;;;20.40;99.90;;;;;;4976007;28;20217;-63
2022/06/12 10:47:20;;;;;;;9.90;2.15;;;20.40;99.90;;;;;;4996945;28;21013;-63
2022/06/12 10:49:47;;;;;;;8.27;2.58;;;20.20;99.90;;;;;;4989538;28;20528;-62
2022/06/12 10:52:18;;;;;;;6.28;2.22;;;20.10;99.90;;;;;;4980059;28;20249;-62
2022/06/12 10:54:45;;;;;;;8.18;2.15;;;20.10;99.90;;;;;;4992641;28;20213;-63
2022/06/12 10:57:31;;;;;;;8.43;2.45;;;20.30;99.90;;;;;;4994411;28;20813;-63
2022/06/12 11:00:04;;;;;;;7.25;2.10;;;20.30;99.90;;;;;;5001652;28;20562;-63
2022/06/12 11:02:50;;;;;;;8.63;2.28;;;20.30;99.90;;;;;;4999783;28;21556;-63
2022/06/12 11:05:47;;;;;;;4.93;1.95;;;20.30;99.90;;;;;;4986295;28;20222;-63
2022/06/12 11:08:44;;;;;;;7.15;2.28;;;20.40;99.90;;;;;;4974679;28;20233;-62
2022/06/12 11:11:17;;;;;;;10.52;2.50;;;20.40;99.90;;;;;;4996814;28;20206;-63
2022/06/12 11:14:03;;;;;;;6.45;2.00;;;20.60;99.90;;;;;;5001565;28;20210;-63
2022/06/12 11:16:43;;;;;;;6.55;2.05;;;20.80;99.90;;;;;;4988400;28;20245;-64
2022/06/12 11:19:26;;;;;;;6.70;2.22;;;20.80;99.90;;;;;;4996318;28;20224;-63
2022/06/12 11:22:00;;;;;;;8.25;2.30;;;20.90;99.90;;;;;;5011080;28;20769;-64
2022/06/12 11:24:31;;;;;;;5.10;2.05;;;21.20;99.90;;;;;;4985145;28;21645;-63
2022/06/12 11:27:40;;;;;;;8.07;2.53;;;21.20;99.90;;;;;;4995432;28;20218;-63
2022/06/12 11:30:18;;;;;;;5.70;2.10;;;21.30;99.90;;;;;;4917290;28;20208;-64
2022/06/12 11:33:12;;;;;;;6.25;2.05;;;20.80;99.90;;;;;;4980607;28;20206;-64
2022/06/12 11:35:49;;;;;;;7.03;1.90;;;20.70;99.90;;;;;;4993126;28;20213;-63
2022/06/12 11:38:46;;;;;;;6.18;2.05;;;18.10;99.90;;;;;;4980456;28;20679;-63
2022/06/12 11:41:23;;;;;;;10.98;2.38;;;20.60;99.90;;;;;;4993503;28;20206;-63
2022/06/12 11:44:00;;;;;;;9.20;2.50;;;20.50;99.90;;;;;;5000258;28;20221;-63
2022/06/12 11:46:34;;;;;;;9.43;2.65;;;20.40;99.90;;;;;;4980942;28;20209;-63
2022/06/12 11:49:30;;;;;;;14.48;2.35;;;20.30;99.90;;;;;;5002479;28;20290;-62
2022/06/12 11:52:11;;;;;;;4.97;2.17;;;20.20;99.90;;;;;;4987993;28;20240;-62
2022/06/12 11:55:00;;;;;;;5.65;1.92;;;20.10;99.90;;;;;;4990443;28;20232;-63
2022/06/12 11:57:33;;;;;;;8.75;2.58;;;19.90;99.90;;;;;;4988977;28;20202;-64
2022/06/12 12:00:09;;;;;;;6.57;2.45;;;20.00;99.90;;;;;;4988542;28;20229;-63
2022/06/12 12:02:50;;;;;;;8.68;2.70;;;20.20;99.90;;;;;;4982654;28;20241;-63
2022/06/12 12:05:40;;;;;;;11.20;2.40;;;20.40;99.90;;;;;;4990094;28;20214;-63
2022/06/12 12:08:22;;;;;;;10.13;2.50;;;20.70;99.90;;;;;;5007746;28;20321;-63
2022/06/12 12:10:55;;;;;;;7.40;2.30;;;21.20;99.90;;;;;;4991290;28;20204;-63
2022/06/12 12:13:28;;;;;;;7.68;2.08;;;21.20;99.90;;;;;;4993052;28;20214;-63
2022/06/12 12:15:58;;;;;;;4.13;1.60;;;21.20;99.90;;;;;;4996342;28;20310;-62
2022/06/12 12:18:35;;;;;;;6.82;1.98;;;21.20;99.90;;;;;;4983887;28;20237;-63
2022/06/12 12:21:06;;;;;;;6.78;1.95;;;21.30;99.90;;;;;;4995495;28;20206;-63
2022/06/12 12:23:40;;;;;;;8.00;2.13;;;21.50;99.90;;;;;;5006974;28;20329;-63
2022/06/12 12:26:12;;;;;;;4.80;1.52;;;21.20;99.90;;;;;;4989865;28;20202;-63
2022/06/12 12:28:44;;;;;;;7.03;2.15;;;21.50;99.90;;;;;;4996375;28;20343;-63
2022/06/12 12:31:14;;;;;;;5.47;2.20;;;21.40;99.90;;;;;;5007076;28;20222;-63
2022/06/12 12:33:44;;;;;;;5.43;1.67;;;20.30;99.90;;;;;;4988683;28;20218;-64
2022/06/12 12:41:47;;;;;;;7.35;2.30;;;21.30;99.90;;;;;;4996696;28;20686;-63
2022/06/12 12:44:28;;;;;;;8.57;1.77;;;21.20;99.90;;;;;;4997112;28;20201;-64
2022/06/12 12:46:55;;;;;;;6.68;1.88;;;21.20;99.90;;;;;;4998045;28;20284;-64
2022/06/12 12:49:27;;;;;;;3.17;1.50;;;21.00;99.90;;;;;;4980138;28;20225;-63
2022/06/12 12:52:05;;;;;;;5.20;2.08;;;20.90;99.90;;;;;;4991789;28;20233;-64
2022/06/12 12:54:45;;;;;;;8.65;1.50;;;20.00;99.90;;;;;;4987077;28;20320;-64
2022/06/12 12:57:14;;;;;;;7.28;1.70;;;19.40;99.90;;;;;;5006590;28;20234;-64
2022/06/12 12:59:44;;;;;;;8.77;2.03;;;20.60;99.90;;;;;;4988638;28;20264;-63
2022/06/12 13:02:25;;;;;;;4.90;2.08;;;20.30;99.90;;;;;;5004180;28;20228;-63
2022/06/12 13:04:55;;;;;;;8.00;2.25;;;19.80;99.90;;;;;;4985873;22;20233;-63
2022/06/12 13:07:36;;;;;;;8.40;2.10;;;19.80;99.90;;;;;;5007212;28;20221;-63
2022/06/12 13:10:26;;;;;;;6.97;2.45;;;19.90;99.90;;;;;;5026052;28;20228;-63
2022/06/12 13:13:14;;;;;;;5.18;1.92;;;19.90;99.90;;;;;;5020138;28;20216;-64
2022/06/12 13:15:46;;;;;;;5.65;2.13;;;20.10;99.90;;;;;;5010617;28;20371;-63
2022/06/12 13:18:29;;;;;;;8.85;2.17;;;20.20;99.90;;;;;;5012463;28;20836;-63
2022/06/12 13:21:05;;;;;;;7.15;2.00;;;20.10;99.90;;;;;;5000834;28;20229;-63
2022/06/12 13:23:59;;;;;;;7.50;1.90;;;20.30;99.90;;;;;;5001397;28;20229;-63
2022/06/12 13:26:31;;;;;;;8.63;2.58;;;20.30;99.90;;;;;;4974390;28;21087;-63
2022/06/12 13:29:00;;;;;;;9.68;2.58;;;20.20;99.90;;;;;;5022092;28;20287;-64